Time;durP1;ratioP1;P1;durP2;ratioP2;P2;SDS_P1;SDS_P2;PMS_P1;PMS_P2;Temp;Humidity;BMP_temperature;BMP_pressure;BME280_temperature;BME280_humidity;BME280_pressure;Samples;Min_cycle;Max_cycle;Signal;HPM_P1;HPM_P2
2022/03/15 00:00:20;;;;;;;9.68;6.20;;;;;;;;;;5047056;28;20479;-66
2022/03/15 00:02:45;;;;;;;15.05;6.10;;;;;;;;;;5038799;28;20038;-67
2022/03/15 00:05:11;;;;;;;12.13;5.90;;;;;;;;;;5042093;28;20021;-66
2022/03/15 00:07:36;;;;;;;12.77;6.03;;;;;;;;;;5041650;28;20108;-66
2022/03/15 00:10:02;;;;;;;11.93;5.82;;;;;;;;;;5042156;28;20095;-66
2022/03/15 00:12:29;;;;;;;11.68;6.28;;;;;;;;;;5037532;28;20025;-67
2022/03/15 00:14:55;;;;;;;12.68;6.30;;;;;;;;;;5040177;28;20029;-66
2022/03/15 00:17:22;;;;;;;11.88;6.22;;;;;;;;;;5040368;28;20075;-66
2022/03/15 00:19:47;;;;;;;10.80;5.72;;;;;;;;;;5041576;28;20139;-66
2022/03/15 00:22:12;;;;;;;12.80;6.07;;;;;;;;;;5041392;28;20112;-66
2022/03/15 00:24:38;;;;;;;11.25;6.32;;;;;;;;;;5041401;28;20027;-67
2022/03/15 00:27:03;;;;;;;11.95;6.05;;;;;;;;;;5038168;28;20029;-66
2022/03/15 00:29:29;;;;;;;10.02;5.68;;;;;;;;;;5036754;28;20033;-66
2022/03/15 00:31:54;;;;;;;10.93;5.22;;;;;;;;;;5042730;28;20013;-66
2022/03/15 00:34:19;;;;;;;11.27;5.85;;;;;;;;;;5042530;28;20083;-66
2022/03/15 00:36:45;;;;;;;14.13;6.25;;;;;;;;;;5042807;28;20078;-66
2022/03/15 00:39:11;;;;;;;12.48;5.45;;;;;;;;;;5060616;28;20029;-66
2022/03/15 00:41:36;;;;;;;11.05;5.63;;;;;;;;;;5056438;28;20089;-66
2022/03/15 00:44:01;;;;;;;12.35;6.20;;;;;;;;;;5058523;28;20074;-67
2022/03/15 00:46:27;;;;;;;13.13;5.85;;;;;;;;;;5062526;28;20043;-66
2022/03/15 00:48:52;;;;;;;10.32;5.90;;;;;;;;;;5061544;28;20169;-66
2022/03/15 00:51:18;;;;;;;12.45;6.10;;;;;;;;;;5061746;28;20139;-66
2022/03/15 00:53:43;;;;;;;11.68;5.80;;;;;;;;;;5058319;28;20220;-66
2022/03/15 00:56:08;;;;;;;12.30;5.40;;;;;;;;;;5061168;28;20021;-67
2022/03/15 00:58:33;;;;;;;11.82;5.40;;;;;;;;;;5056556;28;20028;-67
2022/03/15 01:00:59;;;;;;;9.35;5.25;;;;;;;;;;5063118;28;20046;-67
2022/03/15 01:03:25;;;;;;;11.02;5.25;;;;;;;;;;5061319;28;20027;-67
2022/03/15 01:05:50;;;;;;;12.30;5.60;;;;;;;;;;5043633;28;20028;-67
2022/03/15 01:08:16;;;;;;;14.82;5.93;;;;;;;;;;5062051;28;20378;-67
2022/03/15 01:10:41;;;;;;;13.68;5.70;;;;;;;;;;5062888;28;20129;-67
2022/03/15 01:13:07;;;;;;;11.43;5.88;;;;;;;;;;5054705;28;20107;-67
2022/03/15 01:15:41;;;;;;;10.15;5.93;;;;;;;;;;5062154;28;20024;-67
2022/03/15 01:18:06;;;;;;;9.82;5.72;;;;;;;;;;5060108;28;20032;-67
2022/03/15 01:20:32;;;;;;;9.98;5.78;;;;;;;;;;5062815;28;20074;-67
2022/03/15 01:22:57;;;;;;;10.85;5.72;;;;;;;;;;5061431;28;20369;-67
2022/03/15 01:25:23;;;;;;;10.27;5.38;;;;;;;;;;5044584;28;20078;-67
2022/03/15 01:27:48;;;;;;;12.25;5.50;;;;;;;;;;5055912;28;20024;-67
2022/03/15 01:30:13;;;;;;;12.30;5.78;;;;;;;;;;5054730;28;20036;-67
2022/03/15 01:32:38;;;;;;;11.32;5.40;;;;;;;;;;5040008;28;20020;-67
2022/03/15 01:35:04;;;;;;;9.40;5.40;;;;;;;;;;5041719;28;20033;-67
2022/03/15 01:37:30;;;;;;;12.82;5.78;;;;;;;;;;5039174;28;20029;-67
2022/03/15 01:39:55;;;;;;;8.85;4.93;;;;;;;;;;5023982;28;20033;-67
2022/03/15 01:42:21;;;;;;;12.93;5.53;;;;;;;;;;5038981;28;20119;-67
2022/03/15 01:44:46;;;;;;;15.48;5.97;;;;;;;;;;5040726;28;20023;-67
2022/03/15 01:47:13;;;;;;;9.70;5.30;;;;;;;;;;5045188;28;20021;-67
2022/03/15 01:49:38;;;;;;;12.05;5.60;;;;;;;;;;5026337;28;20045;-67
2022/03/15 01:52:04;;;;;;;11.27;5.28;;;;;;;;;;5045635;28;20063;-67
2022/03/15 01:54:30;;;;;;;11.45;5.68;;;;;;;;;;5045393;28;20075;-66
2022/03/15 01:56:55;;;;;;;11.20;5.47;;;;;;;;;;5025190;28;20027;-67
2022/03/15 01:59:20;;;;;;;12.70;5.68;;;;;;;;;;5041165;28;20025;-67
2022/03/15 02:01:46;;;;;;;10.90;5.35;;;;;;;;;;5044488;28;20389;-66
2022/03/15 02:04:11;;;;;;;10.20;5.47;;;;;;;;;;5044878;28;20017;-66
2022/03/15 02:06:38;;;;;;;9.35;5.65;;;;;;;;;;5043356;28;20074;-66
2022/03/15 02:09:07;;;;;;;13.00;5.65;;;;;;;;;;5043348;28;20013;-66
2022/03/15 02:11:34;;;;;;;10.70;5.82;;;;;;;;;;5022975;28;20101;-66
2022/03/15 02:13:59;;;;;;;9.98;5.80;;;;;;;;;;5037630;28;20024;-66
2022/03/15 02:16:25;;;;;;;10.82;6.03;;;;;;;;;;5043390;28;20032;-66
2022/03/15 02:18:50;;;;;;;12.27;6.60;;;;;;;;;;5042113;28;20511;-66
2022/03/15 02:21:16;;;;;;;10.95;5.72;;;;;;;;;;5045396;28;20025;-66
2022/03/15 02:23:41;;;;;;;12.82;6.03;;;;;;;;;;5041060;28;20021;-67
2022/03/15 02:26:07;;;;;;;11.88;5.78;;;;;;;;;;5040382;28;20032;-66
2022/03/15 02:28:32;;;;;;;11.35;6.00;;;;;;;;;;5036783;28;20376;-67
2022/03/15 02:30:58;;;;;;;13.27;6.20;;;;;;;;;;5026610;28;20510;-66
2022/03/15 02:33:23;;;;;;;12.32;5.97;;;;;;;;;;5058147;28;20228;-67
2022/03/15 02:35:48;;;;;;;11.60;6.40;;;;;;;;;;5064878;28;20379;-67
2022/03/15 02:38:15;;;;;;;11.98;5.88;;;;;;;;;;5062817;28;20402;-66
2022/03/15 02:40:40;;;;;;;11.93;6.38;;;;;;;;;;5045357;28;20085;-67
2022/03/15 02:43:06;;;;;;;11.45;6.57;;;;;;;;;;5055751;28;20021;-66
2022/03/15 02:45:32;;;;;;;10.73;7.22;;;;;;;;;;5065286;28;20020;-67
2022/03/15 02:47:57;;;;;;;12.20;6.10;;;;;;;;;;5043059;28;20215;-67
2022/03/15 02:50:23;;;;;;;14.23;6.68;;;;;;;;;;5064133;28;20053;-67
2022/03/15 02:52:48;;;;;;;10.65;6.60;;;;;;;;;;5061033;28;20028;-67
2022/03/15 02:55:18;;;;;;;10.77;6.25;;;;;;;;;;5063304;28;20100;-67
2022/03/15 02:57:44;;;;;;;12.05;6.70;;;;;;;;;;5055707;28;20614;-67
2022/03/15 03:00:10;;;;;;;14.23;6.97;;;;;;;;;;5062206;28;20052;-67
2022/03/15 03:02:36;;;;;;;13.27;7.07;;;;;;;;;;5060271;28;20040;-67
2022/03/15 03:05:01;;;;;;;14.90;7.10;;;;;;;;;;5045600;28;20048;-67
2022/03/15 03:07:27;;;;;;;10.48;5.68;;;;;;;;;;5061715;28;20393;-66
2022/03/15 03:09:52;;;;;;;14.00;6.90;;;;;;;;;;5043546;28;20075;-67
2022/03/15 03:12:18;;;;;;;8.65;6.32;;;;;;;;;;5056247;28;20021;-67
2022/03/15 03:14:47;;;;;;;10.95;6.45;;;;;;;;;;5058297;28;20066;-67
2022/03/15 03:17:12;;;;;;;12.90;6.55;;;;;;;;;;5062679;28;20017;-67
2022/03/15 03:19:38;;;;;;;11.15;6.78;;;;;;;;;;5061551;28;20421;-67
2022/03/15 03:22:04;;;;;;;13.00;7.28;;;;;;;;;;5060248;28;20937;-67
2022/03/15 03:24:30;;;;;;;11.75;8.10;;;;;;;;;;5062421;28;20518;-67
2022/03/15 03:26:55;;;;;;;12.70;7.97;;;;;;;;;;5058912;28;20135;-67
2022/03/15 03:29:21;;;;;;;10.90;7.60;;;;;;;;;;5056271;28;20020;-67
2022/03/15 03:31:46;;;;;;;14.07;8.02;;;;;;;;;;5059291;28;20103;-67
2022/03/15 03:34:12;;;;;;;14.10;8.15;;;;;;;;;;5041029;28;20557;-67
2022/03/15 03:36:38;;;;;;;13.90;7.75;;;;;;;;;;5041502;28;20116;-68
2022/03/15 03:39:04;;;;;;;15.80;8.60;;;;;;;;;;5039785;28;20115;-67
2022/03/15 03:41:29;;;;;;;16.00;7.68;;;;;;;;;;5039072;28;20320;-67
2022/03/15 03:43:55;;;;;;;12.77;7.82;;;;;;;;;;5035069;28;20110;-67
2022/03/15 03:46:20;;;;;;;11.77;7.60;;;;;;;;;;5043242;28;20085;-67
2022/03/15 03:48:45;;;;;;;11.23;7.10;;;;;;;;;;5021643;28;20360;-67
2022/03/15 03:51:15;;;;;;;12.20;7.47;;;;;;;;;;5026152;28;20465;-66
2022/03/15 03:53:40;;;;;;;10.18;7.00;;;;;;;;;;5041482;28;20432;-67
2022/03/15 03:56:06;;;;;;;16.00;8.00;;;;;;;;;;5039669;28;20044;-66
2022/03/15 03:58:31;;;;;;;12.38;7.30;;;;;;;;;;5037181;28;20353;-67
2022/03/15 04:00:56;;;;;;;12.30;7.95;;;;;;;;;;5040359;28;20287;-67
2022/03/15 04:03:24;;;;;;;11.55;7.80;;;;;;;;;;5041780;28;20381;-67
2022/03/15 04:05:50;;;;;;;12.50;7.00;;;;;;;;;;5041337;28;20036;-67
2022/03/15 04:08:16;;;;;;;14.50;8.77;;;;;;;;;;5040468;28;20256;-66
2022/03/15 04:10:46;;;;;;;12.52;8.38;;;;;;;;;;5042107;28;20059;-67
2022/03/15 04:13:12;;;;;;;10.98;7.95;;;;;;;;;;5034407;28;20499;-67
2022/03/15 04:15:39;;;;;;;15.75;9.00;;;;;;;;;;5041828;28;20037;-67
2022/03/15 04:18:04;;;;;;;16.35;8.90;;;;;;;;;;5023588;28;20058;-67
2022/03/15 04:20:31;;;;;;;14.80;8.48;;;;;;;;;;5045877;28;20387;-67
2022/03/15 04:22:57;;;;;;;12.52;8.48;;;;;;;;;;5038247;28;20471;-67
2022/03/15 04:25:22;;;;;;;13.68;8.85;;;;;;;;;;5043759;28;20017;-67
2022/03/15 04:27:48;;;;;;;13.18;9.05;;;;;;;;;;5037984;28;20108;-67
2022/03/15 04:30:14;;;;;;;16.73;9.68;;;;;;;;;;5040286;28;20479;-67
2022/03/15 04:32:39;;;;;;;16.38;10.50;;;;;;;;;;5024792;28;20037;-67
2022/03/15 04:35:04;;;;;;;15.27;10.18;;;;;;;;;;5040497;28;20380;-67
2022/03/15 04:37:30;;;;;;;12.10;9.50;;;;;;;;;;5041594;28;20519;-66
2022/03/15 04:39:56;;;;;;;15.43;9.40;;;;;;;;;;5039523;28;20368;-66
2022/03/15 04:42:22;;;;;;;18.10;10.00;;;;;;;;;;5038258;28;20025;-66
2022/03/15 04:44:47;;;;;;;17.33;10.15;;;;;;;;;;5040746;28;20075;-66
2022/03/15 04:47:13;;;;;;;17.10;10.57;;;;;;;;;;5041928;28;20071;-68
2022/03/15 04:49:38;;;;;;;17.88;11.05;;;;;;;;;;5043114;28;20489;-68
2022/03/15 04:52:03;;;;;;;16.10;10.13;;;;;;;;;;5038124;28;20431;-66
2022/03/15 04:54:29;;;;;;;16.55;10.40;;;;;;;;;;5040556;28;20037;-66
2022/03/15 04:56:54;;;;;;;15.82;10.95;;;;;;;;;;5037911;28;20054;-66
2022/03/15 04:59:20;;;;;;;17.80;11.00;;;;;;;;;;5037103;28;20239;-67
2022/03/15 05:01:46;;;;;;;17.73;11.18;;;;;;;;;;5039847;28;20108;-67
2022/03/15 05:04:11;;;;;;;14.63;11.15;;;;;;;;;;5024235;28;20040;-66
2022/03/15 05:06:39;;;;;;;17.98;11.25;;;;;;;;;;5042277;28;20025;-66
2022/03/15 05:09:04;;;;;;;13.32;10.57;;;;;;;;;;5039456;28;20197;-66
2022/03/15 05:11:29;;;;;;;15.95;11.38;;;;;;;;;;5039437;28;20033;-66
2022/03/15 05:13:55;;;;;;;18.10;12.90;;;;;;;;;;5033217;28;20021;-66
2022/03/15 05:16:21;;;;;;;18.98;13.75;;;;;;;;;;5041357;28;20021;-66
2022/03/15 05:18:51;;;;;;;21.20;13.40;;;;;;;;;;5040101;28;20029;-66
2022/03/15 05:21:16;;;;;;;21.33;13.55;;;;;;;;;;5040709;28;20017;-66
2022/03/15 05:23:42;;;;;;;19.50;13.70;;;;;;;;;;5041787;28;20024;-66
2022/03/15 05:26:07;;;;;;;23.13;13.95;;;;;;;;;;5037379;28;20110;-66
2022/03/15 05:28:32;;;;;;;19.30;13.90;;;;;;;;;;5036243;28;20094;-66
2022/03/15 05:30:58;;;;;;;20.35;14.43;;;;;;;;;;5040618;28;20051;-65
2022/03/15 05:33:23;;;;;;;21.10;14.20;;;;;;;;;;5038225;28;20383;-66
2022/03/15 05:35:49;;;;;;;21.90;14.93;;;;;;;;;;5040097;28;20027;-67
2022/03/15 05:38:14;;;;;;;24.60;15.13;;;;;;;;;;5038869;28;20450;-67
2022/03/15 05:40:39;;;;;;;24.98;16.40;;;;;;;;;;5042623;28;20033;-65
2022/03/15 05:43:05;;;;;;;25.50;16.55;;;;;;;;;;5032594;28;20421;-67
2022/03/15 05:45:31;;;;;;;27.67;17.10;;;;;;;;;;5043227;28;20104;-67
2022/03/15 05:47:56;;;;;;;22.35;15.20;;;;;;;;;;5037486;28;20183;-67
2022/03/15 05:50:22;;;;;;;28.85;17.00;;;;;;;;;;5042335;28;20376;-68
2022/03/15 05:52:48;;;;;;;27.58;17.45;;;;;;;;;;5040352;28;20033;-65
2022/03/15 05:55:14;;;;;;;27.65;16.05;;;;;;;;;;5038942;28;20017;-66
2022/03/15 05:57:39;;;;;;;26.05;17.27;;;;;;;;;;5035202;28;20888;-66
2022/03/15 06:00:05;;;;;;;23.60;15.43;;;;;;;;;;5036378;28;20056;-66
2022/03/15 06:02:30;;;;;;;25.85;17.77;;;;;;;;;;5039923;28;20321;-67
2022/03/15 06:04:57;;;;;;;26.88;16.85;;;;;;;;;;5041624;28;20055;-66
2022/03/15 06:07:23;;;;;;;26.52;17.15;;;;;;;;;;5041480;28;20779;-66
2022/03/15 06:09:53;;;;;;;23.42;17.17;;;;;;;;;;5043145;28;20079;-66
2022/03/15 06:12:20;;;;;;;25.77;17.30;;;;;;;;;;5045980;28;20123;-67
2022/03/15 06:14:46;;;;;;;31.38;19.90;;;;;;;;;;5046359;28;20025;-67
2022/03/15 06:17:11;;;;;;;33.90;20.33;;;;;;;;;;5047613;28;20035;-67
2022/03/15 06:19:36;;;;;;;31.13;19.73;;;;;;;;;;5044803;28;20075;-67
2022/03/15 06:22:01;;;;;;;31.08;21.55;;;;;;;;;;5037627;28;20086;-67
2022/03/15 06:24:27;;;;;;;33.28;20.30;;;;;;;;;;5041591;28;20127;-67
2022/03/15 06:26:53;;;;;;;30.70;20.10;;;;;;;;;;5038239;28;20029;-67
2022/03/15 06:29:19;;;;;;;32.08;22.77;;;;;;;;;;5039328;28;20036;-67
2022/03/15 06:31:44;;;;;;;32.80;20.55;;;;;;;;;;5044690;28;20025;-67
2022/03/15 06:34:09;;;;;;;29.00;20.30;;;;;;;;;;5044295;28;20132;-67
2022/03/15 06:36:35;;;;;;;29.65;20.25;;;;;;;;;;5045276;28;20494;-66
2022/03/15 06:39:00;;;;;;;29.35;20.67;;;;;;;;;;5043105;28;20032;-67
2022/03/15 06:41:25;;;;;;;34.65;21.80;;;;;;;;;;5043639;28;20565;-66
2022/03/15 06:43:51;;;;;;;32.10;21.65;;;;;;;;;;5040196;28;20032;-66
2022/03/15 06:46:17;;;;;;;35.90;22.02;;;;;;;;;;5042607;28;20028;-66
2022/03/15 06:48:42;;;;;;;31.17;21.77;;;;;;;;;;5026614;28;20021;-66
2022/03/15 06:51:07;;;;;;;32.42;23.75;;;;;;;;;;5042721;28;20099;-66
2022/03/15 06:53:33;;;;;;;34.20;22.63;;;;;;;;;;5044711;28;20047;-66
2022/03/15 06:55:58;;;;;;;34.30;23.38;;;;;;;;;;5041713;28;20032;-66
2022/03/15 06:58:24;;;;;;;35.42;23.83;;;;;;;;;;5036262;28;20075;-67
2022/03/15 07:00:49;;;;;;;34.30;21.95;;;;;;;;;;5045064;28;20065;-66
2022/03/15 07:03:14;;;;;;;29.52;21.88;;;;;;;;;;5040583;28;20047;-66
2022/03/15 07:05:40;;;;;;;31.55;22.38;;;;;;;;;;5044689;28;20024;-66
2022/03/15 07:08:06;;;;;;;30.50;23.60;;;;;;;;;;5039694;28;20394;-66
2022/03/15 07:10:31;;;;;;;32.08;22.38;;;;;;;;;;5042888;28;20429;-66
2022/03/15 07:12:57;;;;;;;29.17;20.80;;;;;;;;;;5037021;28;20064;-66
2022/03/15 07:15:23;;;;;;;34.03;22.92;;;;;;;;;;5061075;28;20016;-66
2022/03/15 07:17:55;;;;;;;32.83;21.65;;;;;;;;;;5044669;28;20036;-66
2022/03/15 07:20:22;;;;;;;39.15;25.48;;;;;;;;;;5064185;28;20032;-66
2022/03/15 07:22:47;;;;;;;38.95;25.08;;;;;;;;;;5061177;28;20091;-67
2022/03/15 07:25:13;;;;;;;37.50;23.52;;;;;;;;;;5062910;28;20892;-67
2022/03/15 07:27:38;;;;;;;35.65;21.88;;;;;;;;;;5059209;28;20265;-67
2022/03/15 07:30:04;;;;;;;34.03;23.20;;;;;;;;;;5060542;28;20059;-67
2022/03/15 07:32:30;;;;;;;33.85;22.00;;;;;;;;;;5062206;28;20364;-66
2022/03/15 07:34:56;;;;;;;33.67;22.73;;;;;;;;;;5061662;28;20123;-66
2022/03/15 07:37:21;;;;;;;33.67;22.27;;;;;;;;;;5044411;28;20093;-66
2022/03/15 07:39:46;;;;;;;39.05;24.02;;;;;;;;;;5064105;28;20421;-66
2022/03/15 07:42:15;;;;;;;33.58;22.65;;;;;;;;;;5059053;28;20063;-66
2022/03/15 07:44:44;;;;;;;30.23;22.17;;;;;;;;;;5061762;28;20119;-67
2022/03/15 07:47:10;;;;;;;32.55;22.45;;;;;;;;;;5045785;28;20020;-66
2022/03/15 07:49:36;;;;;;;35.50;23.60;;;;;;;;;;5047255;28;20536;-67
2022/03/15 07:52:01;;;;;;;33.40;23.35;;;;;;;;;;5060413;28;20044;-67
2022/03/15 07:54:26;;;;;;;30.88;22.98;;;;;;;;;;5063574;28;20020;-68
2022/03/15 07:56:52;;;;;;;35.30;23.45;;;;;;;;;;5063049;28;20475;-68
2022/03/15 07:59:17;;;;;;;33.38;21.70;;;;;;;;;;5060804;28;20751;-67
2022/03/15 08:01:43;;;;;;;34.60;21.83;;;;;;;;;;5063767;28;20478;-66
2022/03/15 08:04:08;;;;;;;32.80;22.13;;;;;;;;;;5061159;28;20020;-66
2022/03/15 08:06:35;;;;;;;31.58;21.95;;;;;;;;;;5046008;28;20098;-66
2022/03/15 08:09:01;;;;;;;31.83;22.42;;;;;;;;;;5061302;28;20099;-66
2022/03/15 08:11:26;;;;;;;34.50;22.65;;;;;;;;;;5045034;28;20107;-67
2022/03/15 08:13:54;;;;;;;30.92;20.73;;;;;;;;;;5043449;28;20135;-66
2022/03/15 08:16:21;;;;;;;32.25;21.63;;;;;;;;;;5063369;28;20437;-66
2022/03/15 08:18:46;;;;;;;36.83;22.30;;;;;;;;;;5061886;28;20028;-66
2022/03/15 08:21:11;;;;;;;29.77;20.00;;;;;;;;;;5062864;28;20024;-66
2022/03/15 08:23:36;;;;;;;30.38;20.92;;;;;;;;;;5061681;28;20024;-66
2022/03/15 08:26:02;;;;;;;30.05;21.55;;;;;;;;;;5061728;28;20025;-67
2022/03/15 08:28:28;;;;;;;29.38;21.00;;;;;;;;;;5058232;28;20630;-67
2022/03/15 08:30:54;;;;;;;29.02;20.92;;;;;;;;;;5063418;28;20040;-66
2022/03/15 08:33:20;;;;;;;34.85;21.52;;;;;;;;;;5059281;28;20033;-66
2022/03/15 08:35:46;;;;;;;30.95;21.67;;;;;;;;;;5062581;28;20032;-66
2022/03/15 08:38:11;;;;;;;27.95;20.55;;;;;;;;;;5062668;28;20025;-67
2022/03/15 08:40:36;;;;;;;26.95;21.38;;;;;;;;;;5064417;28;20035;-66
2022/03/15 08:43:03;;;;;;;29.33;20.08;;;;;;;;;;5055662;28;20048;-67
2022/03/15 08:45:28;;;;;;;29.60;20.80;;;;;;;;;;5062593;28;20059;-66
2022/03/15 08:47:53;;;;;;;27.75;20.70;;;;;;;;;;5062186;28;20025;-66
2022/03/15 08:50:19;;;;;;;30.52;20.48;;;;;;;;;;5059757;28;20237;-66
2022/03/15 08:52:44;;;;;;;28.30;19.55;;;;;;;;;;5061989;28;20510;-66
2022/03/15 08:55:10;;;;;;;27.13;19.02;;;;;;;;;;5060214;28;20028;-67
2022/03/15 08:57:35;;;;;;;22.88;18.98;;;;;;;;;;5058282;28;20416;-67
2022/03/15 09:00:02;;;;;;;27.77;20.15;;;;;;;;;;5059949;28;20032;-66
2022/03/15 09:02:27;;;;;;;26.92;18.88;;;;;;;;;;5060514;28;20085;-65
2022/03/15 09:04:53;;;;;;;30.45;19.73;;;;;;;;;;5062896;28;20370;-68
2022/03/15 09:07:18;;;;;;;24.52;18.70;;;;;;;;;;5058207;28;20020;-66
2022/03/15 09:09:43;;;;;;;31.85;19.42;;;;;;;;;;5063330;28;20024;-67
2022/03/15 09:12:09;;;;;;;26.48;17.20;;;;;;;;;;5059435;28;20477;-66
2022/03/15 09:14:34;;;;;;;23.63;16.85;;;;;;;;;;5057432;28;20493;-66
2022/03/15 09:17:00;;;;;;;23.27;16.30;;;;;;;;;;5061451;28;20395;-66
2022/03/15 09:19:26;;;;;;;26.77;16.50;;;;;;;;;;5060300;28;20067;-65
2022/03/15 09:21:51;;;;;;;24.65;16.35;;;;;;;;;;5060989;28;20052;-66
2022/03/15 09:24:17;;;;;;;23.02;15.32;;;;;;;;;;5059793;28;20020;-66
2022/03/15 09:26:42;;;;;;;24.23;15.77;;;;;;;;;;5058800;28;20028;-66
2022/03/15 09:29:08;;;;;;;21.60;15.88;;;;;;;;;;5055536;28;20031;-66
2022/03/15 09:31:35;;;;;;;22.55;14.02;;;;;;;;;;5063811;28;20036;-65
2022/03/15 09:34:00;;;;;;;22.10;14.48;;;;;;;;;;5063148;28;20069;-65
2022/03/15 09:36:25;;;;;;;18.38;14.75;;;;;;;;;;5061632;28;20152;-65
2022/03/15 09:38:51;;;;;;;21.73;15.18;;;;;;;;;;5061796;28;20056;-66
2022/03/15 09:41:18;;;;;;;21.08;14.02;;;;;;;;;;5059951;28;20522;-66
2022/03/15 09:43:47;;;;;;;18.17;12.38;;;;;;;;;;5059361;28;20044;-67
2022/03/15 09:46:13;;;;;;;20.50;12.55;;;;;;;;;;5062165;28;20021;-67
2022/03/15 09:48:39;;;;;;;21.58;13.18;;;;;;;;;;5063587;28;20120;-66
2022/03/15 09:51:06;;;;;;;18.88;13.50;;;;;;;;;;5063123;28;20483;-66
2022/03/15 09:53:32;;;;;;;18.02;13.75;;;;;;;;;;5060611;28;20584;-66
2022/03/15 09:55:59;;;;;;;20.27;14.63;;;;;;;;;;5063198;28;20036;-67
2022/03/15 09:58:24;;;;;;;22.42;14.50;;;;;;;;;;5052110;28;20131;-67
2022/03/15 10:00:51;;;;;;;22.75;13.88;;;;;;;;;;5063810;28;20119;-67
2022/03/15 10:03:17;;;;;;;21.13;13.88;;;;;;;;;;5058820;28;20069;-66
2022/03/15 10:05:42;;;;;;;20.55;14.00;;;;;;;;;;5066256;28;20024;-66
2022/03/15 10:08:08;;;;;;;18.52;13.23;;;;;;;;;;5063539;28;20433;-65
2022/03/15 10:10:34;;;;;;;19.20;13.10;;;;;;;;;;5064404;28;20016;-66
2022/03/15 10:13:02;;;;;;;17.25;12.73;;;;;;;;;;5059464;28;20406;-66
2022/03/15 10:15:28;;;;;;;17.25;11.15;;;;;;;;;;5062979;28;20139;-66
2022/03/15 10:17:55;;;;;;;15.85;11.88;;;;;;;;;;5065270;28;20515;-67
2022/03/15 10:20:28;;;;;;;17.25;10.80;;;;;;;;;;5065099;28;20052;-67
2022/03/15 10:22:57;;;;;;;16.38;10.68;;;;;;;;;;5064511;28;20079;-65
2022/03/15 10:25:23;;;;;;;12.00;10.05;;;;;;;;;;5064517;28;20020;-66
2022/03/15 10:27:49;;;;;;;12.82;9.98;;;;;;;;;;5061469;28;20020;-66
2022/03/15 10:30:14;;;;;;;15.82;8.82;;;;;;;;;;5061944;28;20040;-67
2022/03/15 10:32:40;;;;;;;12.30;8.55;;;;;;;;;;5064153;28;20403;-66
2022/03/15 10:35:09;;;;;;;12.45;9.68;;;;;;;;;;5066601;28;20108;-65
2022/03/15 10:37:35;;;;;;;15.88;9.80;;;;;;;;;;5063632;28;20050;-67
2022/03/15 10:40:01;;;;;;;14.73;9.23;;;;;;;;;;5065001;28;20479;-67
2022/03/15 10:42:26;;;;;;;12.95;9.10;;;;;;;;;;5057243;28;20032;-66
2022/03/15 10:44:51;;;;;;;13.52;9.02;;;;;;;;;;5061588;28;20021;-66
2022/03/15 10:47:17;;;;;;;16.92;10.10;;;;;;;;;;5061726;28;20032;-67
2022/03/15 10:49:51;;;;;;;12.65;9.07;;;;;;;;;;5069805;28;20117;-67
2022/03/15 10:52:30;;;;;;;14.40;9.38;;;;;;;;;;5059672;28;20051;-66
2022/03/15 10:54:56;;;;;;;13.00;9.35;;;;;;;;;;5062346;28;20031;-67
2022/03/15 10:57:21;;;;;;;12.25;9.00;;;;;;;;;;5059513;28;20013;-66
2022/03/15 10:59:46;;;;;;;13.18;9.52;;;;;;;;;;5060156;28;20013;-66
2022/03/15 11:02:12;;;;;;;14.30;8.85;;;;;;;;;;5063981;28;20047;-66
2022/03/15 11:04:55;;;;;;;13.10;8.07;;;;;;;;;;5063600;28;20078;-66
2022/03/15 11:07:21;;;;;;;8.95;6.68;;;;;;;;;;5061539;28;20016;-66
2022/03/15 11:09:46;;;;;;;9.15;6.40;;;;;;;;;;5065935;28;20532;-67
2022/03/15 11:12:11;;;;;;;8.48;6.15;;;;;;;;;;5059919;28;20025;-66
2022/03/15 11:14:42;;;;;;;9.20;6.85;;;;;;;;;;5056896;28;20034;-66
2022/03/15 11:17:27;;;;;;;9.60;7.05;;;;;;;;;;5064899;28;20028;-66
2022/03/15 11:19:57;;;;;;;10.85;6.50;;;;;;;;;;5063339;28;20499;-66
2022/03/15 11:22:30;;;;;;;10.02;6.40;;;;;;;;;;5062245;28;20483;-65
2022/03/15 11:24:56;;;;;;;9.88;6.13;;;;;;;;;;5066635;28;20029;-66
2022/03/15 11:27:22;;;;;;;10.95;6.30;;;;;;;;;;5061240;28;20097;-66
2022/03/15 11:29:51;;;;;;;12.68;6.53;;;;;;;;;;5058859;28;20103;-66
2022/03/15 11:32:17;;;;;;;12.45;6.43;;;;;;;;;;5061704;28;20027;-66
2022/03/15 11:34:42;;;;;;;10.32;6.50;;;;;;;;;;5064857;28;20044;-66
2022/03/15 11:37:12;;;;;;;10.48;5.57;;;;;;;;;;5064993;28;20455;-67
2022/03/15 11:39:41;;;;;;;8.40;5.07;;;;;;;;;;5062280;28;20020;-66
2022/03/15 11:42:09;;;;;;;6.72;4.55;;;;;;;;;;5061514;28;20156;-66
2022/03/15 11:44:43;;;;;;;8.48;3.80;;;;;;;;;;5059169;28;20477;-66
2022/03/15 11:47:15;;;;;;;8.23;3.45;;;;;;;;;;5065368;28;20029;-66
2022/03/15 11:49:48;;;;;;;6.45;3.17;;;;;;;;;;5047932;28;20050;-66
2022/03/15 11:52:22;;;;;;;6.32;4.10;;;;;;;;;;5065159;28;20372;-66
2022/03/15 11:54:50;;;;;;;7.40;4.00;;;;;;;;;;5063157;28;20031;-66
2022/03/15 11:57:26;;;;;;;7.32;3.88;;;;;;;;;;5062346;28;20103;-66
2022/03/15 11:59:52;;;;;;;7.97;3.05;;;;;;;;;;5061667;28;20021;-66
2022/03/15 12:02:32;;;;;;;8.05;3.40;;;;;;;;;;5065198;28;20114;-66
2022/03/15 12:04:58;;;;;;;5.60;3.55;;;;;;;;;;5065194;28;20020;-65
2022/03/15 12:07:34;;;;;;;9.63;4.53;;;;;;;;;;5063362;28;20359;-66
2022/03/15 12:09:59;;;;;;;7.57;4.22;;;;;;;;;;5065413;28;20120;-66
2022/03/15 12:12:29;;;;;;;6.57;3.95;;;;;;;;;;5059826;28;20454;-66
2022/03/15 12:14:54;;;;;;;5.53;3.53;;;;;;;;;;5060590;28;20085;-68
2022/03/15 12:17:20;;;;;;;5.25;4.05;;;;;;;;;;5062784;28;20016;-68
2022/03/15 12:19:49;;;;;;;7.10;3.53;;;;;;;;;;5063108;28;20485;-67
2022/03/15 12:22:25;;;;;;;6.40;3.42;;;;;;;;;;5063026;28;20096;-67
2022/03/15 12:25:01;;;;;;;6.18;3.72;;;;;;;;;;5063341;28;20023;-67
2022/03/15 12:27:27;;;;;;;8.27;3.60;;;;;;;;;;5059780;28;20016;-67
2022/03/15 12:29:53;;;;;;;8.25;4.18;;;;;;;;;;5053892;28;20375;-67
2022/03/15 12:32:19;;;;;;;7.93;4.03;;;;;;;;;;5042464;28;20033;-67
2022/03/15 12:34:46;;;;;;;8.40;4.15;;;;;;;;;;5027859;28;20013;-67
2022/03/15 12:37:11;;;;;;;5.70;3.95;;;;;;;;;;5044743;28;20017;-66
2022/03/15 12:39:37;;;;;;;7.45;4.00;;;;;;;;;;5041598;28;20189;-67
2022/03/15 12:42:05;;;;;;;5.75;3.90;;;;;;;;;;5040863;28;20036;-67
2022/03/15 12:44:39;;;;;;;10.27;4.90;;;;;;;;;;5038770;28;20021;-68
2022/03/15 12:47:05;;;;;;;7.18;4.07;;;;;;;;;;5045721;28;20017;-67
2022/03/15 12:49:31;;;;;;;6.20;4.03;;;;;;;;;;5042523;28;20037;-69
2022/03/15 12:51:56;;;;;;;10.10;4.82;;;;;;;;;;5044172;28;20044;-66
2022/03/15 12:54:24;;;;;;;6.93;4.50;;;;;;;;;;5042273;28;20024;-68
2022/03/15 12:56:51;;;;;;;7.63;4.30;;;;;;;;;;5041803;28;20309;-67
2022/03/15 12:59:21;;;;;;;9.60;4.85;;;;;;;;;;5038034;28;20099;-69
2022/03/15 13:01:47;;;;;;;12.80;5.40;;;;;;;;;;5041181;28;20021;-67
2022/03/15 13:04:13;;;;;;;8.85;4.72;;;;;;;;;;5043823;28;20017;-67
2022/03/15 13:06:40;;;;;;;7.88;4.15;;;;;;;;;;5041663;28;20039;-67
2022/03/15 13:09:06;;;;;;;8.13;4.75;;;;;;;;;;5043213;28;20013;-70
2022/03/15 13:11:33;;;;;;;7.55;5.07;;;;;;;;;;5041142;28;20523;-68
2022/03/15 13:13:59;;;;;;;7.30;4.20;;;;;;;;;;5040676;28;20036;-68
2022/03/15 13:16:24;;;;;;;8.20;3.97;;;;;;;;;;5061601;28;20302;-68
2022/03/15 13:18:49;;;;;;;7.93;4.35;;;;;;;;;;5061978;28;20387;-67
2022/03/15 13:21:15;;;;;;;6.78;4.78;;;;;;;;;;5063764;28;20024;-67
2022/03/15 13:23:42;;;;;;;10.30;5.20;;;;;;;;;;5058439;28;20292;-68
2022/03/15 13:26:12;;;;;;;7.32;4.50;;;;;;;;;;5045206;28;20020;-67
2022/03/15 13:28:41;;;;;;;8.30;5.10;;;;;;;;;;5055062;28;20017;-69
2022/03/15 13:31:09;;;;;;;8.65;5.18;;;;;;;;;;5063733;28;20093;-68
2022/03/15 13:33:51;;;;;;;7.68;4.78;;;;;;;;;;5059532;28;20017;-68
2022/03/15 13:36:20;;;;;;;8.95;5.28;;;;;;;;;;5064478;28;20455;-67
2022/03/15 13:38:46;;;;;;;9.70;5.88;;;;;;;;;;5062326;28;20108;-68
2022/03/15 13:41:13;;;;;;;7.20;5.00;;;;;;;;;;5066637;28;20157;-68
2022/03/15 13:43:41;;;;;;;7.78;5.25;;;;;;;;;;5057489;28;20028;-67
2022/03/15 13:46:07;;;;;;;9.13;5.20;;;;;;;;;;5067124;28;20016;-68
2022/03/15 13:48:33;;;;;;;8.48;5.65;;;;;;;;;;5066380;28;20416;-68
2022/03/15 13:51:00;;;;;;;8.18;6.43;;;;;;;;;;5066675;28;20570;-68
2022/03/15 13:53:26;;;;;;;7.72;5.20;;;;;;;;;;5062566;28;20024;-68
2022/03/15 13:55:53;;;;;;;8.18;5.70;;;;;;;;;;5049822;28;20119;-68
2022/03/15 13:58:25;;;;;;;10.27;6.35;;;;;;;;;;5064319;28;20534;-67
2022/03/15 14:01:01;;;;;;;11.13;6.60;;;;;;;;;;5049283;28;20089;-67
2022/03/15 14:03:30;;;;;;;10.45;6.47;;;;;;;;;;5062915;28;20035;-67
2022/03/15 14:06:05;;;;;;;9.07;6.20;;;;;;;;;;5066215;28;20032;-68
2022/03/15 14:08:50;;;;;;;10.43;6.50;;;;;;;;;;5063102;28;20020;-67
2022/03/15 14:11:16;;;;;;;10.77;5.93;;;;;;;;;;5065646;28;20024;-66
2022/03/15 14:14:00;;;;;;;12.15;7.15;;;;;;;;;;5056120;28;20469;-67
2022/03/15 14:16:40;;;;;;;11.55;7.40;;;;;;;;;;5065306;28;20021;-68
2022/03/15 14:19:09;;;;;;;12.07;7.82;;;;;;;;;;5063544;28;20024;-66
2022/03/15 14:21:36;;;;;;;11.55;7.90;;;;;;;;;;5065689;28;20039;-67